Time;durP1;ratioP1;P1;durP2;ratioP2;P2;SDS_P1;SDS_P2;PMS_P1;PMS_P2;Temp;Humidity;BMP_temperature;BMP_pressure;BME280_temperature;BME280_humidity;BME280_pressure;Samples;Min_cycle;Max_cycle;Signal;HPM_P1;HPM_P2
2022/11/13 00:02:05;;;;;;;3.15;2.50;;;3.90;99.90;;;;;;5087886;28;20289;-79
2022/11/13 00:04:32;;;;;;;3.00;2.90;;;3.80;99.90;;;;;;5088073;28;20207;-80
2022/11/13 00:06:59;;;;;;;3.70;1.98;;;3.80;99.90;;;;;;5087063;28;20592;-79
2022/11/13 00:09:26;;;;;;;3.33;3.03;;;3.80;99.90;;;;;;5091229;28;20225;-79
2022/11/13 00:11:53;;;;;;;2.83;2.08;;;3.80;99.90;;;;;;5092091;28;20212;-79
2022/11/13 00:14:19;;;;;;;2.47;2.20;;;3.80;99.90;;;;;;5092075;28;20311;-79
2022/11/13 00:16:46;;;;;;;3.88;2.45;;;3.80;99.90;;;;;;5098190;28;20277;-79
2022/11/13 00:19:14;;;;;;;4.00;2.75;;;3.80;99.90;;;;;;5111773;28;20204;-80
2022/11/13 00:21:41;;;;;;;2.53;2.33;;;3.80;99.90;;;;;;5112037;28;20688;-80
2022/11/13 00:24:08;;;;;;;7.22;3.20;;;3.90;99.90;;;;;;5111909;28;20206;-80
2022/11/13 00:26:35;;;;;;;3.53;2.63;;;3.90;99.90;;;;;;5111805;28;20202;-79
2022/11/13 00:29:03;;;;;;;3.75;2.60;;;3.80;99.90;;;;;;5111751;28;20711;-79
2022/11/13 00:31:30;;;;;;;2.65;1.77;;;3.90;99.90;;;;;;5112088;28;20597;-79
2022/11/13 00:33:58;;;;;;;2.20;1.40;;;3.80;99.90;;;;;;5111258;28;20197;-79
2022/11/13 00:36:28;;;;;;;2.33;2.20;;;3.80;99.90;;;;;;5111367;28;20683;-80
2022/11/13 00:38:55;;;;;;;1.80;1.70;;;3.70;99.90;;;;;;5111832;28;20194;-79
2022/11/13 00:41:22;;;;;;;2.63;2.35;;;3.70;99.90;;;;;;5111894;28;20208;-79
2022/11/13 00:43:49;;;;;;;4.15;3.22;;;3.60;99.90;;;;;;5111728;28;20205;-79
2022/11/13 00:46:16;;;;;;;1.35;1.35;;;3.60;99.90;;;;;;5110952;28;20204;-80
2022/11/13 00:48:43;;;;;;;1.92;1.73;;;3.60;99.90;;;;;;5111831;28;20229;-79
2022/11/13 00:51:10;;;;;;;4.55;2.20;;;3.50;99.90;;;;;;5111766;28;20216;-79
2022/11/13 00:53:38;;;;;;;3.60;2.15;;;3.50;99.90;;;;;;5111401;28;20204;-80
2022/11/13 00:56:05;;;;;;;2.75;1.73;;;3.50;99.90;;;;;;5111626;28;20286;-79
2022/11/13 00:58:32;;;;;;;2.42;2.22;;;3.50;99.90;;;;;;5109852;28;20573;-80
2022/11/13 01:01:05;;;;;;;2.28;2.05;;;3.50;99.90;;;;;;5090838;28;20274;-79
2022/11/13 01:03:32;;;;;;;4.10;2.42;;;3.50;99.90;;;;;;5091486;28;20199;-80
2022/11/13 01:05:59;;;;;;;2.88;2.25;;;3.50;99.90;;;;;;5091432;28;20203;-79
2022/11/13 01:08:26;;;;;;;2.50;2.30;;;3.50;99.90;;;;;;5089408;28;20399;-80
2022/11/13 01:10:54;;;;;;;6.45;3.50;;;3.50;99.90;;;;;;5091165;28;20217;-79
2022/11/13 01:13:21;;;;;;;2.30;1.65;;;3.50;99.90;;;;;;5090381;28;20289;-80
2022/11/13 01:15:48;;;;;;;2.75;2.55;;;3.50;99.90;;;;;;5090882;28;20208;-79
2022/11/13 01:18:14;;;;;;;3.78;2.13;;;3.50;99.90;;;;;;5109072;28;20668;-79
2022/11/13 01:20:41;;;;;;;2.65;2.45;;;3.40;99.90;;;;;;5111207;28;20296;-79
2022/11/13 01:23:08;;;;;;;2.08;1.98;;;3.40;99.90;;;;;;5111175;28;20293;-79
2022/11/13 01:25:35;;;;;;;4.00;1.90;;;3.30;99.90;;;;;;5110490;28;20240;-80
2022/11/13 01:28:03;;;;;;;1.95;1.83;;;3.30;99.90;;;;;;5109785;28;20205;-79
2022/11/13 01:30:30;;;;;;;4.35;1.63;;;3.40;99.90;;;;;;5111042;28;20221;-79
2022/11/13 01:32:57;;;;;;;2.83;2.53;;;3.30;99.90;;;;;;5110927;28;20661;-79
2022/11/13 01:35:24;;;;;;;1.40;1.30;;;3.30;99.90;;;;;;5110764;28;20202;-79
2022/11/13 01:37:50;;;;;;;4.47;2.45;;;3.30;99.90;;;;;;5110537;28;20202;-79
2022/11/13 01:40:17;;;;;;;3.60;2.28;;;3.20;99.90;;;;;;5110429;28;20198;-79
2022/11/13 01:42:44;;;;;;;4.30;3.22;;;3.20;99.90;;;;;;5110166;28;20200;-80
2022/11/13 01:45:59;;;;;;;1.30;1.10;;;3.10;99.90;;;;;;5110829;28;20288;-79
2022/11/13 01:48:32;;;;;;;3.53;2.10;;;3.20;99.90;;;;;;5110386;28;20206;-79
2022/11/13 01:50:59;;;;;;;2.33;1.70;;;3.20;99.90;;;;;;5110057;28;20202;-79
2022/11/13 01:53:26;;;;;;;3.45;1.95;;;3.10;99.90;;;;;;5110776;28;20293;-79
2022/11/13 01:55:53;;;;;;;3.80;2.13;;;3.10;99.90;;;;;;5110205;28;20783;-80
2022/11/13 01:58:20;;;;;;;3.15;2.35;;;3.10;99.90;;;;;;5110092;28;20301;-79
2022/11/13 02:00:47;;;;;;;2.25;2.03;;;3.10;99.90;;;;;;5090461;28;20201;-79
2022/11/13 02:03:15;;;;;;;2.17;1.98;;;3.10;99.90;;;;;;5089509;28;20278;-80
2022/11/13 02:05:42;;;;;;;2.80;1.58;;;3.10;99.90;;;;;;5089831;28;20520;-79
2022/11/13 02:08:09;;;;;;;3.15;1.77;;;3.10;99.90;;;;;;5087191;28;20199;-79
2022/11/13 02:10:36;;;;;;;1.52;1.42;;;3.00;99.90;;;;;;5089305;28;20704;-79
2022/11/13 02:13:04;;;;;;;2.65;2.00;;;3.00;99.90;;;;;;5089716;28;20198;-79
2022/11/13 02:15:33;;;;;;;2.90;1.70;;;3.10;99.90;;;;;;5089826;28;20207;-83
2022/11/13 02:18:02;;;;;;;7.40;1.98;;;3.00;99.90;;;;;;5105516;28;20194;-80
2022/11/13 02:20:40;;;;;;;2.10;1.90;;;3.50;99.90;;;;;;5110047;28;20198;-79
2022/11/13 02:23:17;;;;;;;2.05;1.80;;;2.90;99.90;;;;;;5109508;28;20204;-80
2022/11/13 02:25:47;;;;;;;3.22;2.88;;;2.90;99.90;;;;;;5109683;28;20201;-80
2022/11/13 02:28:14;;;;;;;1.45;1.42;;;3.00;99.90;;;;;;5108952;28;20193;-81
2022/11/13 02:30:42;;;;;;;2.35;2.15;;;3.00;99.90;;;;;;5109111;27;20218;-79
2022/11/13 02:33:23;;;;;;;2.15;1.95;;;2.90;99.90;;;;;;5109529;28;20210;-79
2022/11/13 02:35:51;;;;;;;6.63;2.20;;;3.00;99.90;;;;;;5109846;28;20195;-79
2022/11/13 02:38:18;;;;;;;2.38;2.17;;;3.00;99.90;;;;;;5109049;28;20733;-79
2022/11/13 02:40:47;;;;;;;2.63;2.47;;;3.10;99.90;;;;;;5109166;28;20743;-79
2022/11/13 02:43:14;;;;;;;3.03;2.80;;;3.00;99.90;;;;;;5109359;28;20540;-79
2022/11/13 02:45:41;;;;;;;3.20;2.20;;;3.00;99.90;;;;;;5109522;28;20198;-79
2022/11/13 02:48:08;;;;;;;1.35;1.27;;;2.90;99.90;;;;;;5108928;28;20197;-79
2022/11/13 02:50:36;;;;;;;2.00;1.42;;;2.90;99.90;;;;;;5109895;28;20228;-79
2022/11/13 02:53:05;;;;;;;1.70;1.60;;;2.90;99.90;;;;;;5109258;28;20190;-79
2022/11/13 02:55:32;;;;;;;4.15;2.10;;;3.00;99.90;;;;;;5108613;28;20234;-79
2022/11/13 02:58:00;;;;;;;2.60;2.40;;;3.10;99.90;;;;;;5108532;28;20194;-79
2022/11/13 03:00:27;;;;;;;1.58;1.48;;;3.00;99.90;;;;;;5092527;28;20195;-79
2022/11/13 03:02:54;;;;;;;2.60;1.90;;;2.90;99.90;;;;;;5088710;28;20206;-79
2022/11/13 03:05:21;;;;;;;1.67;1.58;;;2.90;99.90;;;;;;5088990;28;20206;-80
2022/11/13 03:07:48;;;;;;;1.60;0.90;;;2.90;99.90;;;;;;5087959;28;20202;-81
2022/11/13 03:10:15;;;;;;;1.58;1.48;;;3.00;99.90;;;;;;5087195;28;20222;-79
2022/11/13 03:12:42;;;;;;;2.45;2.25;;;2.90;99.90;;;;;;5088494;28;20749;-79
2022/11/13 03:15:11;;;;;;;2.22;1.58;;;2.90;99.90;;;;;;5088800;28;20201;-79
2022/11/13 03:17:38;;;;;;;1.65;1.55;;;2.90;99.90;;;;;;5101453;28;20247;-79
2022/11/13 03:20:06;;;;;;;2.90;2.70;;;2.80;99.90;;;;;;5108843;28;20209;-79
2022/11/13 03:22:33;;;;;;;2.17;1.50;;;2.80;99.90;;;;;;5108307;28;20198;-79
2022/11/13 03:25:00;;;;;;;2.00;1.83;;;2.70;99.90;;;;;;5108324;28;20206;-79
2022/11/13 03:27:27;;;;;;;1.70;1.60;;;2.70;99.90;;;;;;5108059;28;20202;-79
2022/11/13 03:29:54;;;;;;;1.42;1.33;;;2.70;99.90;;;;;;5108247;28;20221;-79
2022/11/13 03:32:23;;;;;;;2.60;1.30;;;2.70;99.90;;;;;;5108809;28;20194;-79
2022/11/13 03:34:50;;;;;;;1.65;1.55;;;2.70;99.90;;;;;;5108255;28;20525;-79
2022/11/13 03:37:17;;;;;;;1.98;1.77;;;2.50;99.90;;;;;;5107717;28;20199;-79
2022/11/13 03:39:44;;;;;;;5.53;3.97;;;2.60;99.90;;;;;;5108435;28;20425;-79
2022/11/13 03:42:11;;;;;;;2.35;1.70;;;2.70;99.90;;;;;;5107685;28;20194;-79
2022/11/13 03:44:38;;;;;;;2.35;1.67;;;2.60;99.90;;;;;;5108330;28;20198;-80
2022/11/13 03:47:05;;;;;;;2.63;2.42;;;2.60;99.90;;;;;;5107942;28;20193;-79
2022/11/13 03:49:33;;;;;;;3.92;2.45;;;2.60;99.90;;;;;;5108526;28;20220;-79
2022/11/13 03:52:00;;;;;;;1.58;1.48;;;2.60;99.90;;;;;;5108664;28;20194;-79
2022/11/13 03:54:27;;;;;;;2.28;2.03;;;2.50;99.90;;;;;;5108446;28;20186;-79
2022/11/13 03:56:54;;;;;;;2.15;1.98;;;2.40;99.90;;;;;;5108028;28;20220;-79
2022/11/13 03:59:21;;;;;;;5.60;2.17;;;2.40;99.90;;;;;;5100316;28;20612;-79
2022/11/13 04:01:48;;;;;;;3.33;2.35;;;2.40;99.90;;;;;;5087856;28;20237;-79
2022/11/13 04:04:15;;;;;;;3.28;3.08;;;2.50;99.90;;;;;;5087568;28;20634;-80
2022/11/13 04:06:43;;;;;;;1.38;1.27;;;2.40;99.90;;;;;;5087482;28;20202;-79
2022/11/13 04:09:11;;;;;;;3.20;2.38;;;2.40;99.90;;;;;;5086618;28;20736;-79
2022/11/13 04:11:37;;;;;;;1.85;1.75;;;2.30;99.90;;;;;;5087799;28;20220;-79
2022/11/13 04:14:04;;;;;;;3.17;1.45;;;2.30;99.90;;;;;;5087969;28;20205;-80
2022/11/13 04:16:31;;;;;;;2.80;1.77;;;2.40;99.90;;;;;;5091936;28;20190;-80
2022/11/13 04:18:58;;;;;;;2.40;1.90;;;2.40;99.90;;;;;;5107432;28;20198;-79
2022/11/13 04:21:26;;;;;;;2.80;2.17;;;2.30;99.90;;;;;;5108107;28;20208;-79
2022/11/13 04:23:54;;;;;;;1.15;1.05;;;2.30;99.90;;;;;;5108189;28;20197;-79
2022/11/13 04:26:21;;;;;;;2.42;1.10;;;2.20;99.90;;;;;;5107177;28;20237;-79
2022/11/13 04:28:48;;;;;;;1.95;1.85;;;2.20;99.90;;;;;;5107847;28;20198;-80
2022/11/13 04:31:15;;;;;;;7.93;2.72;;;2.10;99.90;;;;;;5107694;28;20222;-79
2022/11/13 04:33:41;;;;;;;4.75;2.15;;;2.50;99.90;;;;;;5107852;28;20221;-79
2022/11/13 04:36:09;;;;;;;0.65;0.65;;;2.10;99.90;;;;;;5108137;28;20198;-79
2022/11/13 04:38:35;;;;;;;4.72;2.33;;;2.00;99.90;;;;;;5107780;28;20212;-79
2022/11/13 04:43:48;;;;;;;2.78;1.58;;;1.90;99.90;;;;;;5107589;28;20198;-79
2022/11/13 04:46:15;;;;;;;2.38;2.17;;;1.80;99.90;;;;;;5107655;28;20201;-80
2022/11/13 04:48:42;;;;;;;1.35;1.35;;;1.80;99.90;;;;;;5108168;28;20322;-79
2022/11/13 04:51:09;;;;;;;3.53;2.47;;;1.70;99.90;;;;;;5108057;28;20311;-79
2022/11/13 04:53:35;;;;;;;3.97;2.42;;;1.70;99.90;;;;;;5109267;28;20221;-79
2022/11/13 04:56:04;;;;;;;2.45;2.15;;;1.70;99.90;;;;;;5111437;28;20204;-79
2022/11/13 04:58:30;;;;;;;1.42;1.33;;;1.60;99.90;;;;;;5109905;28;20288;-81
2022/11/13 05:00:57;;;;;;;4.32;1.42;;;1.60;99.90;;;;;;5091278;28;20666;-79
2022/11/13 05:03:24;;;;;;;2.63;1.92;;;1.60;99.90;;;;;;5091354;28;20221;-79
2022/11/13 05:05:51;;;;;;;2.72;2.25;;;1.50;99.90;;;;;;5091297;28;20209;-79
2022/11/13 05:08:18;;;;;;;2.80;2.60;;;1.40;99.90;;;;;;5089044;28;20664;-79
2022/11/13 05:10:44;;;;;;;2.13;1.95;;;1.40;99.90;;;;;;5090975;28;20252;-80
2022/11/13 05:13:12;;;;;;;1.65;1.55;;;1.30;99.90;;;;;;5090451;28;20224;-79
2022/11/13 05:15:39;;;;;;;2.25;1.58;;;1.40;99.90;;;;;;5091242;28;20201;-79
2022/11/13 05:18:06;;;;;;;1.55;1.45;;;1.40;99.90;;;;;;5108338;28;20278;-79
2022/11/13 05:20:33;;;;;;;2.38;2.17;;;1.40;99.90;;;;;;5110917;28;20222;-79
2022/11/13 05:22:59;;;;;;;1.67;1.58;;;1.40;99.90;;;;;;5111227;28;20212;-79
2022/11/13 05:25:26;;;;;;;2.08;1.98;;;1.50;99.90;;;;;;5110634;28;20239;-80
2022/11/13 05:27:53;;;;;;;3.10;2.80;;;1.40;99.90;;;;;;5110230;28;20211;-79
2022/11/13 05:30:21;;;;;;;1.35;1.35;;;1.50;99.90;;;;;;5111054;28;20239;-79
2022/11/13 05:32:48;;;;;;;1.92;1.80;;;1.40;99.90;;;;;;5110906;28;20576;-79
2022/11/13 05:35:15;;;;;;;3.80;2.30;;;1.50;99.90;;;;;;5110983;28;20284;-79
2022/11/13 05:37:42;;;;;;;0.80;0.80;;;1.50;99.90;;;;;;5110465;28;20195;-79
2022/11/13 05:40:10;;;;;;;3.58;2.47;;;1.50;99.90;;;;;;5110770;28;20213;-79
2022/11/13 05:42:37;;;;;;;3.90;2.40;;;1.50;99.90;;;;;;5110695;28;20203;-79
2022/11/13 05:45:04;;;;;;;3.63;3.38;;;1.60;99.90;;;;;;5110805;28;20628;-79
2022/11/13 05:47:32;;;;;;;1.73;1.63;;;1.50;99.90;;;;;;5109858;28;20748;-81
2022/11/13 05:49:59;;;;;;;2.22;2.03;;;1.50;99.90;;;;;;5110852;28;20207;-79
2022/11/13 05:52:26;;;;;;;1.85;1.67;;;1.50;99.90;;;;;;5110230;28;20579;-79
2022/11/13 05:54:53;;;;;;;1.08;1.00;;;1.50;99.90;;;;;;5110110;28;20206;-79
2022/11/13 05:57:19;;;;;;;1.77;1.48;;;1.50;99.90;;;;;;5110026;28;20210;-79
2022/11/13 05:59:46;;;;;;;1.08;0.90;;;1.50;99.90;;;;;;5098812;28;20205;-79
2022/11/13 06:02:13;;;;;;;1.10;1.10;;;1.40;99.90;;;;;;5090155;28;20208;-79
2022/11/13 06:04:41;;;;;;;0.75;0.75;;;1.50;99.90;;;;;;5089316;28;20295;-79
2022/11/13 06:07:08;;;;;;;1.27;1.25;;;1.50;99.90;;;;;;5088356;28;20208;-80
2022/11/13 06:09:35;;;;;;;2.30;1.88;;;1.40;99.90;;;;;;5088739;28;20234;-79
2022/11/13 06:12:01;;;;;;;2.50;2.33;;;1.40;99.90;;;;;;5090039;28;20231;-79
2022/11/13 06:14:28;;;;;;;1.88;1.77;;;1.50;99.90;;;;;;5089870;28;20224;-79
2022/11/13 06:16:55;;;;;;;2.60;1.67;;;1.40;99.90;;;;;;5096738;28;20203;-79
2022/11/13 06:19:22;;;;;;;2.35;1.90;;;1.40;99.90;;;;;;5110380;28;20297;-79
2022/11/13 06:21:50;;;;;;;3.22;2.72;;;1.40;99.90;;;;;;5109464;28;20300;-80
2022/11/13 06:24:17;;;;;;;1.73;1.17;;;1.40;99.90;;;;;;5110174;28;20571;-79
2022/11/13 06:26:44;;;;;;;3.20;1.52;;;1.40;99.90;;;;;;5109380;28;20293;-79
2022/11/13 06:29:12;;;;;;;1.38;1.30;;;1.50;99.90;;;;;;5109441;28;20648;-79
2022/11/13 06:31:39;;;;;;;2.45;2.35;;;1.50;99.90;;;;;;5109645;28;20592;-79
2022/11/13 06:34:07;;;;;;;1.65;1.58;;;1.50;99.90;;;;;;5109579;28;20193;-80
2022/11/13 06:36:36;;;;;;;2.97;2.78;;;1.40;99.90;;;;;;5109019;28;20304;-79
2022/11/13 06:39:07;;;;;;;1.50;1.40;;;1.40;99.90;;;;;;5110012;28;20292;-79
2022/11/13 06:41:34;;;;;;;2.45;1.48;;;1.50;99.90;;;;;;5109746;28;20285;-79
2022/11/13 06:44:01;;;;;;;1.75;1.65;;;1.60;99.90;;;;;;5109709;28;20205;-79
2022/11/13 06:46:29;;;;;;;1.40;1.30;;;1.70;99.90;;;;;;5108720;28;20246;-79
2022/11/13 06:48:56;;;;;;;3.15;2.85;;;1.80;99.90;;;;;;5109135;28;20194;-79
2022/11/13 06:51:27;;;;;;;3.15;2.85;;;1.80;99.90;;;;;;5109220;28;20320;-79
2022/11/13 06:53:53;;;;;;;2.58;2.35;;;1.90;99.90;;;;;;5109639;28;20252;-79
2022/11/13 06:56:22;;;;;;;3.50;3.20;;;1.90;99.90;;;;;;5108836;28;21110;-79
2022/11/13 06:58:49;;;;;;;2.33;2.05;;;2.10;99.90;;;;;;5106001;28;20205;-79
2022/11/13 07:01:21;;;;;;;1.95;1.85;;;2.10;99.90;;;;;;5088581;28;20210;-80
2022/11/13 07:03:47;;;;;;;2.40;2.20;;;2.10;99.90;;;;;;5088852;28;20309;-79
2022/11/13 07:06:16;;;;;;;2.67;1.98;;;2.10;99.90;;;;;;5088289;28;20321;-79
2022/11/13 07:08:44;;;;;;;3.53;3.17;;;2.10;99.90;;;;;;5087457;28;20294;-79
2022/11/13 07:11:13;;;;;;;7.22;2.97;;;2.10;99.90;;;;;;5088530;28;20696;-79
2022/11/13 07:13:42;;;;;;;1.73;1.25;;;2.20;99.90;;;;;;5088543;28;20213;-82
2022/11/13 07:16:10;;;;;;;5.03;2.67;;;2.20;99.90;;;;;;5089780;28;20209;-79
2022/11/13 07:18:38;;;;;;;2.03;1.92;;;2.20;99.90;;;;;;5108379;28;20202;-79
2022/11/13 07:21:06;;;;;;;1.65;1.55;;;2.20;99.90;;;;;;5108753;28;20205;-79
2022/11/13 07:23:35;;;;;;;1.60;1.50;;;2.30;99.90;;;;;;5108803;28;20225;-79
2022/11/13 07:26:02;;;;;;;1.90;1.80;;;2.30;99.90;;;;;;5109275;28;20271;-79
2022/11/13 07:28:29;;;;;;;2.35;2.15;;;2.40;99.90;;;;;;5107461;28;20194;-79
2022/11/13 07:30:58;;;;;;;2.80;2.00;;;2.40;99.90;;;;;;5108778;28;20659;-79
2022/11/13 07:33:26;;;;;;;1.15;1.02;;;2.30;99.90;;;;;;5108527;28;20298;-79
2022/11/13 07:35:54;;;;;;;2.70;2.50;;;2.30;99.90;;;;;;5108797;28;20202;-80
2022/11/13 07:38:21;;;;;;;4.20;3.00;;;2.40;99.90;;;;;;5107859;28;20202;-79
2022/11/13 07:40:48;;;;;;;2.42;2.05;;;2.40;99.90;;;;;;5108295;28;20312;-80
2022/11/13 07:43:15;;;;;;;4.05;2.53;;;2.40;99.90;;;;;;5108113;28;20198;-79
2022/11/13 07:45:41;;;;;;;4.38;2.70;;;2.40;99.90;;;;;;5108284;28;20763;-80
2022/11/13 07:48:10;;;;;;;3.45;2.25;;;2.30;99.90;;;;;;5107687;28;20282;-80
2022/11/13 07:50:38;;;;;;;7.03;1.90;;;2.40;99.90;;;;;;5108488;28;20230;-80
2022/11/13 07:53:06;;;;;;;2.58;2.47;;;2.30;99.90;;;;;;5108091;28;20202;-80
2022/11/13 07:55:34;;;;;;;1.42;1.33;;;2.40;99.90;;;;;;5107711;28;20288;-79
2022/11/13 07:58:01;;;;;;;2.00;1.80;;;2.40;99.90;;;;;;5107396;28;20206;-80
2022/11/13 08:00:29;;;;;;;4.85;1.80;;;2.50;99.90;;;;;;5091599;28;20283;-80
2022/11/13 08:02:56;;;;;;;1.38;1.25;;;2.60;99.90;;;;;;5088067;28;20249;-80
2022/11/13 08:05:24;;;;;;;2.42;1.60;;;2.50;99.90;;;;;;5088271;28;20201;-80
2022/11/13 08:07:52;;;;;;;1.38;1.27;;;2.50;99.90;;;;;;5087281;28;20301;-80
2022/11/13 08:10:20;;;;;;;3.17;2.88;;;2.60;99.90;;;;;;5086451;28;20325;-80
2022/11/13 08:12:47;;;;;;;3.22;2.38;;;2.60;99.90;;;;;;5087975;28;20198;-79
2022/11/13 08:15:15;;;;;;;1.63;1.52;;;2.60;99.90;;;;;;5087968;28;20502;-80
2022/11/13 08:17:42;;;;;;;3.03;1.98;;;2.60;99.90;;;;;;5101478;28;20289;-79
2022/11/13 08:20:10;;;;;;;3.53;2.40;;;2.70;99.90;;;;;;5108171;28;20277;-79
2022/11/13 08:22:38;;;;;;;1.33;1.20;;;2.70;99.90;;;;;;5107337;28;20280;-79
2022/11/13 08:25:05;;;;;;;3.08;2.33;;;2.70;99.90;;;;;;5107901;28;20664;-79
2022/11/13 08:27:32;;;;;;;3.20;2.65;;;2.80;99.90;;;;;;5107285;28;20596;-79
2022/11/13 08:29:59;;;;;;;2.10;1.98;;;2.90;99.90;;;;;;5111547;28;20206;-80
2022/11/13 08:32:26;;;;;;;2.90;2.67;;;3.00;99.90;;;;;;5112009;28;20639;-80
2022/11/13 08:34:52;;;;;;;1.45;1.35;;;3.20;99.90;;;;;;5111746;28;20228;-80
2022/11/13 08:37:19;;;;;;;1.83;1.33;;;3.20;99.90;;;;;;5111669;28;20205;-79
2022/11/13 08:39:47;;;;;;;2.45;2.25;;;3.10;99.90;;;;;;5112179;28;20194;-79
2022/11/13 08:42:14;;;;;;;2.92;1.70;;;3.20;99.90;;;;;;5112087;28;20204;-80
2022/11/13 08:44:41;;;;;;;1.98;1.85;;;3.10;99.90;;;;;;5111686;28;20206;-80
2022/11/13 08:47:08;;;;;;;2.08;1.95;;;3.20;99.90;;;;;;5111202;28;20292;-79
2022/11/13 08:49:34;;;;;;;3.20;2.80;;;3.20;99.90;;;;;;5111184;28;20205;-81
2022/11/13 08:52:01;;;;;;;2.85;2.65;;;3.30;99.90;;;;;;5111674;28;20226;-79
2022/11/13 08:54:28;;;;;;;5.05;2.78;;;3.30;99.90;;;;;;5111948;28;20297;-79
2022/11/13 08:56:56;;;;;;;4.43;2.20;;;3.40;99.90;;;;;;5111035;28;20282;-79
2022/11/13 08:59:23;;;;;;;1.73;1.60;;;3.50;99.90;;;;;;5103530;28;20198;-79
2022/11/13 09:01:57;;;;;;;3.63;2.50;;;3.50;99.90;;;;;;5091187;28;20214;-79
2022/11/13 09:04:23;;;;;;;3.65;2.38;;;3.70;99.90;;;;;;5090621;28;20210;-79
2022/11/13 09:06:50;;;;;;;2.88;2.58;;;3.80;99.90;;;;;;5090221;28;20831;-79
2022/11/13 09:09:17;;;;;;;3.75;2.40;;;3.80;99.90;;;;;;5089682;28;20285;-79
2022/11/13 09:11:44;;;;;;;4.60;2.95;;;3.80;99.90;;;;;;5091045;28;20219;-79
2022/11/13 09:14:12;;;;;;;1.55;1.45;;;3.90;99.90;;;;;;5090726;28;20221;-79
2022/11/13 09:16:39;;;;;;;3.30;3.00;;;4.00;99.90;;;;;;5095280;28;20567;-80
2022/11/13 09:19:06;;;;;;;1.70;1.60;;;4.00;99.90;;;;;;5111078;28;20212;-79
2022/11/13 09:21:33;;;;;;;3.30;1.95;;;4.00;99.90;;;;;;5111258;28;20202;-80
2022/11/13 09:24:00;;;;;;;3.10;2.90;;;4.20;99.90;;;;;;5111403;28;20297;-79
2022/11/13 09:26:27;;;;;;;5.75;5.10;;;4.20;99.90;;;;;;5110627;28;20212;-79
2022/11/13 09:28:53;;;;;;;3.50;2.67;;;4.30;99.90;;;;;;5110751;28;20194;-79
2022/11/13 09:31:21;;;;;;;3.95;2.80;;;4.30;99.90;;;;;;5110454;28;20309;-79
2022/11/13 09:33:48;;;;;;;3.50;2.40;;;4.40;99.90;;;;;;5110925;28;20526;-79
2022/11/13 09:36:16;;;;;;;6.00;2.80;;;4.40;99.90;;;;;;5110625;28;20294;-80
2022/11/13 09:38:43;;;;;;;3.47;3.20;;;4.50;99.90;;;;;;5110888;28;20583;-79
2022/11/13 09:41:12;;;;;;;2.60;2.40;;;4.50;99.90;;;;;;5109689;28;20202;-79
2022/11/13 09:43:43;;;;;;;5.85;3.42;;;4.60;99.90;;;;;;5110968;28;20202;-80
2022/11/13 09:46:18;;;;;;;3.92;3.58;;;4.70;99.90;;;;;;5110588;28;20664;-79
2022/11/13 09:48:52;;;;;;;4.90;3.00;;;4.80;99.90;;;;;;5110835;28;20202;-79
2022/11/13 09:51:22;;;;;;;4.50;3.28;;;4.80;99.90;;;;;;5110790;28;20232;-79
2022/11/13 09:53:49;;;;;;;8.43;4.18;;;4.90;99.90;;;;;;5110573;28;20241;-79
2022/11/13 09:56:27;;;;;;;4.93;3.40;;;5.00;99.90;;;;;;5109403;28;20201;-80
2022/11/13 09:59:01;;;;;;;2.33;1.88;;;5.10;99.90;;;;;;5106403;28;20198;-79
2022/11/13 10:01:35;;;;;;;3.85;2.33;;;5.10;99.90;;;;;;5090422;28;20201;-79
2022/11/13 10:04:07;;;;;;;3.03;2.75;;;5.20;99.90;;;;;;5090283;28;20421;-79
2022/11/13 10:06:54;;;;;;;3.80;3.30;;;5.20;99.90;;;;;;5088967;28;20585;-79
2022/11/13 10:09:28;;;;;;;4.72;3.60;;;5.30;99.90;;;;;;5088544;28;20218;-79
2022/11/13 10:11:57;;;;;;;5.85;4.43;;;5.30;99.90;;;;;;5089877;28;20226;-79
2022/11/13 10:14:29;;;;;;;4.13;3.42;;;5.40;99.90;;;;;;5089658;28;20198;-79
2022/11/13 10:17:01;;;;;;;3.38;3.05;;;5.50;99.90;;;;;;5096782;28;20191;-79
2022/11/13 10:19:36;;;;;;;3.63;2.90;;;5.60;99.90;;;;;;5110025;28;20644;-79
2022/11/13 10:22:07;;;;;;;4.88;4.43;;;5.70;99.90;;;;;;5110256;28;20284;-79
2022/11/13 10:24:40;;;;;;;2.97;2.78;;;5.80;99.90;;;;;;5110002;28;20210;-79
2022/11/13 10:27:09;;;;;;;3.35;2.67;;;5.90;99.90;;;;;;5109215;28;20208;-79
2022/11/13 10:29:37;;;;;;;5.97;2.10;;;6.20;99.90;;;;;;5109030;28;20194;-80
2022/11/13 10:32:17;;;;;;;1.60;1.50;;;6.30;99.90;;;;;;5109878;28;20224;-80
2022/11/13 10:34:48;;;;;;;3.75;3.10;;;6.40;99.90;;;;;;5110192;28;20222;-80
2022/11/13 10:37:28;;;;;;;3.28;2.28;;;6.50;99.90;;;;;;5109051;28;20792;-80
2022/11/13 10:39:54;;;;;;;4.85;3.13;;;6.60;99.90;;;;;;5109566;28;20280;-80
2022/11/13 10:42:23;;;;;;;9.93;3.90;;;6.70;99.90;;;;;;5109493;28;20301;-79
2022/11/13 10:44:55;;;;;;;5.00;3.42;;;6.80;99.90;;;;;;5109696;28;20208;-79
2022/11/13 10:47:24;;;;;;;3.88;3.58;;;6.90;99.90;;;;;;5108830;28;20216;-79
2022/11/13 10:49:52;;;;;;;3.72;3.42;;;7.10;99.90;;;;;;5109889;28;20575;-79
2022/11/13 10:52:21;;;;;;;6.30;4.53;;;7.20;99.90;;;;;;5108553;28;20221;-79
2022/11/13 10:54:49;;;;;;;5.35;3.28;;;7.10;99.90;;;;;;5108889;28;20202;-80
2022/11/13 10:57:34;;;;;;;3.80;3.15;;;7.30;99.90;;;;;;5108682;28;20202;-79
2022/11/13 11:00:03;;;;;;;2.40;2.13;;;7.50;99.90;;;;;;5095939;28;20687;-79
2022/11/13 11:02:30;;;;;;;4.40;2.73;;;7.40;99.90;;;;;;5088627;28;20613;-79
2022/11/13 11:05:06;;;;;;;3.77;3.40;;;7.50;99.90;;;;;;5089003;28;20648;-81
2022/11/13 11:07:40;;;;;;;3.55;2.95;;;7.60;99.90;;;;;;5088332;28;20611;-80
2022/11/13 11:10:21;;;;;;;4.03;3.13;;;7.80;99.90;;;;;;5088163;28;20202;-79
2022/11/13 11:12:52;;;;;;;5.00;4.13;;;7.90;99.90;;;;;;5088335;28;20378;-80
2022/11/13 11:15:24;;;;;;;7.83;3.40;;;7.90;99.90;;;;;;5088458;28;21300;-80
2022/11/13 11:17:53;;;;;;;4.43;3.00;;;7.80;99.90;;;;;;5103299;28;20619;-80
2022/11/13 11:20:26;;;;;;;3.40;2.60;;;7.90;99.90;;;;;;5108944;28;21189;-80
2022/11/13 11:22:58;;;;;;;4.10;3.60;;;7.90;99.90;;;;;;5108797;28;20615;-80
2022/11/13 11:25:34;;;;;;;5.33;3.27;;;7.90;99.90;;;;;;5108837;28;20654;-80
2022/11/13 11:28:04;;;;;;;3.20;2.93;;;8.00;99.90;;;;;;5107192;28;21259;-81
2022/11/13 11:30:39;;;;;;;4.20;3.57;;;8.10;99.90;;;;;;5108746;28;20603;-81
2022/11/13 11:33:12;;;;;;;2.83;2.23;;;8.10;99.90;;;;;;5108630;28;20755;-80
2022/11/13 11:35:45;;;;;;;4.87;3.67;;;8.10;99.90;;;;;;5108824;28;20954;-80
2022/11/13 11:38:16;;;;;;;4.57;3.43;;;8.20;99.90;;;;;;5107975;28;20635;-80
2022/11/13 11:40:46;;;;;;;2.50;1.60;;;8.30;99.90;;;;;;5108662;28;20608;-80
2022/11/13 11:43:19;;;;;;;3.23;2.33;;;8.30;99.90;;;;;;5108582;28;20669;-80
2022/11/13 11:45:47;;;;;;;3.47;3.20;;;8.40;99.90;;;;;;5108425;28;20615;-80
2022/11/13 11:48:15;;;;;;;3.90;2.80;;;8.40;99.90;;;;;;5107996;28;21225;-80
2022/11/13 11:50:50;;;;;;;3.13;2.83;;;8.40;99.90;;;;;;5108384;28;20758;-80
2022/11/13 11:53:27;;;;;;;3.73;3.43;;;8.50;99.90;;;;;;5108334;28;20700;-80
2022/11/13 11:56:16;;;;;;;4.73;3.33;;;8.50;99.90;;;;;;5108339;28;20627;-80
2022/11/13 11:59:13;;;;;;;2.27;2.00;;;8.50;99.90;;;;;;5105833;28;20615;-80
2022/11/13 12:01:59;;;;;;;4.00;3.70;;;8.60;99.90;;;;;;5088286;28;20948;-80
2022/11/13 12:04:40;;;;;;;3.60;3.10;;;8.60;99.90;;;;;;5087127;28;20620;-80
2022/11/13 12:07:23;;;;;;;2.80;2.40;;;8.70;99.90;;;;;;5087298;28;20628;-80
2022/11/13 12:09:57;;;;;;;2.60;2.40;;;8.70;99.90;;;;;;5086570;28;20620;-79
2022/11/13 12:12:42;;;;;;;2.50;2.30;;;8.80;99.50;;;;;;5087910;28;21009;-80
2022/11/13 12:15:15;;;;;;;2.10;1.90;;;8.90;98.60;;;;;;5087719;28;20616;-80
2022/11/13 12:17:51;;;;;;;3.50;2.60;;;9.10;98.30;;;;;;5101399;28;20715;-80
2022/11/13 12:20:26;;;;;;;3.17;2.87;;;9.10;98.40;;;;;;5108165;28;20623;-80
2022/11/13 12:23:04;;;;;;;3.50;3.20;;;9.00;98.70;;;;;;5108149;28;20617;-80
2022/11/13 12:25:39;;;;;;;3.17;2.87;;;9.00;98.60;;;;;;5107803;28;20649;-82
2022/11/13 12:28:14;;;;;;;2.87;2.60;;;9.10;99.00;;;;;;5107195;28;20625;-80
2022/11/13 12:30:49;;;;;;;2.87;2.57;;;9.20;98.40;;;;;;5107392;28;20722;-80
2022/11/13 12:33:23;;;;;;;2.90;2.63;;;9.20;97.80;;;;;;5107802;28;21100;-80
2022/11/13 12:35:52;;;;;;;3.63;2.83;;;9.20;98.10;;;;;;5107856;28;20619;-80
2022/11/13 12:38:32;;;;;;;2.50;2.07;;;9.20;98.30;;;;;;5107489;28;20612;-79
2022/11/13 12:41:04;;;;;;;3.97;2.50;;;9.20;98.50;;;;;;5107447;28;20982;-80
2022/11/13 12:43:48;;;;;;;2.47;2.27;;;9.20;98.30;;;;;;5108032;28;20738;-80
2022/11/13 12:46:15;;;;;;;1.90;1.60;;;9.20;98.10;;;;;;5107301;28;20628;-80
2022/11/13 12:48:44;;;;;;;2.10;1.80;;;9.30;98.30;;;;;;5107606;28;21168;-80
2022/11/13 12:51:13;;;;;;;2.90;2.70;;;9.30;98.20;;;;;;5107512;28;20624;-80
2022/11/13 12:53:48;;;;;;;4.37;2.90;;;9.30;98.80;;;;;;5107651;28;20665;-79
2022/11/13 12:56:18;;;;;;;4.37;3.97;;;9.30;98.50;;;;;;5107692;28;20614;-79
2022/11/13 12:58:57;;;;;;;3.53;2.90;;;9.30;99.30;;;;;;5105696;28;20748;-80
2022/11/13 13:01:25;;;;;;;4.73;4.33;;;9.30;99.80;;;;;;5087376;28;20789;-79
2022/11/13 13:04:11;;;;;;;3.80;3.50;;;9.30;99.90;;;;;;5086858;28;20627;-80
2022/11/13 13:06:52;;;;;;;6.67;3.80;;;9.30;99.90;;;;;;5086859;28;20717;-79
2022/11/13 13:09:36;;;;;;;5.70;4.20;;;9.30;99.90;;;;;;5086742;28;20635;-80
2022/11/13 13:12:11;;;;;;;6.07;4.50;;;9.30;99.90;;;;;;5086798;28;20613;-80